Time;durP1;ratioP1;P1;durP2;ratioP2;P2;SDS_P1;SDS_P2;PMS_P1;PMS_P2;Temp;Humidity;BMP_temperature;BMP_pressure;BME280_temperature;BME280_humidity;BME280_pressure;Samples;Min_cycle;Max_cycle;Signal;HPM_P1;HPM_P2
2022/10/15 00:01:27;;;;;;;6.53;5.93;;;16.10;74.90;;;;;;4804981;29;20054;-51
2022/10/15 00:03:55;;;;;;;7.10;6.32;;;16.00;74.90;;;;;;4798861;29;20043;-55
2022/10/15 00:06:27;;;;;;;7.10;6.40;;;16.00;74.90;;;;;;4803960;29;20433;-54
2022/10/15 00:08:54;;;;;;;8.07;7.05;;;16.00;75.10;;;;;;4805050;29;20049;-55
2022/10/15 00:11:26;;;;;;;6.97;6.28;;;16.00;75.20;;;;;;4802550;29;20072;-54
2022/10/15 00:13:57;;;;;;;8.63;7.18;;;16.00;75.20;;;;;;4797746;29;20076;-54
2022/10/15 00:16:26;;;;;;;8.77;7.60;;;16.00;75.10;;;;;;4804341;29;20407;-56
2022/10/15 00:18:58;;;;;;;9.35;7.60;;;16.00;75.00;;;;;;4804142;29;20055;-53
2022/10/15 00:21:25;;;;;;;8.07;7.28;;;16.00;74.90;;;;;;4804645;29;20047;-54
2022/10/15 00:23:54;;;;;;;8.45;7.10;;;15.90;74.80;;;;;;4799351;29;20108;-55
2022/10/15 00:26:27;;;;;;;7.90;6.90;;;15.90;74.80;;;;;;4803960;29;20039;-52
2022/10/15 00:28:57;;;;;;;8.45;6.88;;;15.90;74.80;;;;;;4804573;29;20053;-55
2022/10/15 00:31:26;;;;;;;8.38;6.65;;;15.90;74.70;;;;;;4803016;29;20130;-55
2022/10/15 00:33:55;;;;;;;7.45;6.75;;;15.90;74.70;;;;;;4797840;29;20047;-51
2022/10/15 00:36:27;;;;;;;8.77;6.78;;;15.90;74.60;;;;;;4803708;29;20043;-51
2022/10/15 00:38:54;;;;;;;7.15;6.45;;;15.80;74.50;;;;;;4803216;29;20508;-53
2022/10/15 00:41:33;;;;;;;7.30;5.93;;;15.80;74.50;;;;;;4800468;29;20146;-55
2022/10/15 00:44:21;;;;;;;7.18;6.43;;;15.80;74.40;;;;;;4815223;29;20059;-51
2022/10/15 00:47:12;;;;;;;9.25;6.32;;;15.80;74.40;;;;;;4803830;29;20096;-53
2022/10/15 00:49:47;;;;;;;8.40;6.45;;;15.80;74.40;;;;;;4804061;29;20078;-52
2022/10/15 00:52:40;;;;;;;7.07;6.35;;;15.80;74.60;;;;;;4797517;29;20047;-54
2022/10/15 00:55:12;;;;;;;6.88;6.28;;;15.80;74.60;;;;;;4810162;29;20431;-55
2022/10/15 00:57:46;;;;;;;7.45;6.35;;;15.70;74.60;;;;;;4802914;29;20547;-53
2022/10/15 01:00:16;;;;;;;8.00;7.18;;;15.70;74.80;;;;;;4800222;29;20043;-54
2022/10/15 01:02:48;;;;;;;6.82;6.20;;;15.70;74.90;;;;;;4802477;29;20047;-55
2022/10/15 01:05:16;;;;;;;9.52;6.93;;;15.70;75.10;;;;;;4803662;29;20144;-55
2022/10/15 01:07:46;;;;;;;10.88;8.70;;;15.70;75.50;;;;;;4797854;29;20059;-52
2022/10/15 01:10:16;;;;;;;13.48;9.65;;;15.80;75.90;;;;;;4800654;29;20121;-55
2022/10/15 01:13:19;;;;;;;10.73;9.65;;;15.80;77.00;;;;;;4802986;29;20050;-55
2022/10/15 01:16:04;;;;;;;11.45;10.25;;;15.90;77.30;;;;;;4802115;29;20142;-54
2022/10/15 01:18:44;;;;;;;12.35;11.05;;;15.90;77.50;;;;;;4809240;29;20063;-55
2022/10/15 01:21:19;;;;;;;14.68;11.45;;;15.90;77.60;;;;;;4814843;29;20153;-55
2022/10/15 01:24:20;;;;;;;11.82;10.63;;;16.00;77.50;;;;;;4802530;29;20057;-55
2022/10/15 01:27:23;;;;;;;11.95;9.88;;;16.00;78.20;;;;;;4803555;29;20050;-55
2022/10/15 01:30:01;;;;;;;11.48;9.93;;;16.10;78.10;;;;;;4801628;29;20069;-51
2022/10/15 01:32:33;;;;;;;11.82;9.60;;;16.10;77.80;;;;;;4803568;29;20047;-54
2022/10/15 01:35:20;;;;;;;11.80;10.23;;;16.20;77.60;;;;;;4803296;29;20093;-52
2022/10/15 01:38:00;;;;;;;12.18;10.88;;;16.20;77.90;;;;;;4794236;29;20055;-55
2022/10/15 01:40:36;;;;;;;11.27;10.13;;;16.30;77.80;;;;;;4802721;29;20523;-53
2022/10/15 01:43:08;;;;;;;12.68;11.10;;;16.30;77.80;;;;;;4801681;29;20050;-55
2022/10/15 01:45:50;;;;;;;10.20;9.17;;;16.40;77.60;;;;;;4800274;29;20119;-55
2022/10/15 01:48:36;;;;;;;20.58;11.13;;;16.40;77.60;;;;;;4801373;29;20053;-54
2022/10/15 01:51:05;;;;;;;14.00;10.73;;;16.50;77.50;;;;;;4802003;29;20051;-55
2022/10/15 01:53:36;;;;;;;11.90;10.45;;;16.50;77.40;;;;;;4801837;29;20470;-55
2022/10/15 01:56:11;;;;;;;11.00;9.85;;;16.50;77.40;;;;;;4799719;29;20056;-53
2022/10/15 01:58:40;;;;;;;;;;;16.50;77.30;;;;;;4799187;29;20059;-54
2022/10/15 02:01:07;;;;;;;10.95;9.48;;;16.60;77.50;;;;;;4802047;29;20375;-55
2022/10/15 02:03:49;;;;;;;13.70;11.45;;;16.60;76.80;;;;;;4801951;29;20425;-55
2022/10/15 02:06:27;;;;;;;12.35;10.45;;;16.60;77.80;;;;;;4798072;29;20045;-52
2022/10/15 02:09:14;;;;;;;13.55;10.82;;;16.60;77.00;;;;;;4802072;29;20055;-54
2022/10/15 02:11:58;;;;;;;12.07;10.85;;;16.60;77.20;;;;;;4803423;29;20061;-55
2022/10/15 02:14:37;;;;;;;12.40;10.88;;;16.70;77.20;;;;;;4799903;29;20062;-54
2022/10/15 02:17:10;;;;;;;13.13;11.63;;;16.70;77.10;;;;;;4801566;29;20042;-54
2022/10/15 02:19:50;;;;;;;12.38;10.63;;;16.70;77.00;;;;;;4803125;29;20111;-56
2022/10/15 02:22:32;;;;;;;12.15;10.90;;;16.70;77.00;;;;;;4802098;29;20072;-55
2022/10/15 02:25:14;;;;;;;13.65;11.45;;;16.70;77.00;;;;;;4797038;29;20527;-55
2022/10/15 02:27:42;;;;;;;11.77;10.45;;;16.70;77.10;;;;;;4787393;29;20175;-55
2022/10/15 02:30:10;;;;;;;12.88;11.15;;;16.70;76.90;;;;;;4808583;29;20047;-53
2022/10/15 02:32:43;;;;;;;;;;;16.70;76.90;;;;;;4798376;29;20039;-51
2022/10/15 02:35:13;;;;;;;11.60;10.27;;;16.80;77.30;;;;;;4804283;29;19925;-54
2022/10/15 02:37:46;;;;;;;14.10;11.55;;;16.80;76.60;;;;;;4805946;29;20130;-53
2022/10/15 02:40:20;;;;;;;12.30;11.02;;;16.80;76.80;;;;;;4803348;29;21126;-55
2022/10/15 02:42:50;;;;;;;13.20;11.80;;;16.80;76.80;;;;;;4802049;29;20134;-53
2022/10/15 02:45:17;;;;;;;12.68;11.30;;;16.80;77.00;;;;;;4803893;29;20055;-54
2022/10/15 02:47:47;;;;;;;15.20;11.02;;;16.80;77.00;;;;;;4805767;29;20457;-55
2022/10/15 02:50:18;;;;;;;14.43;11.85;;;16.80;77.10;;;;;;4806035;29;20096;-55
2022/10/15 02:52:45;;;;;;;14.55;11.40;;;16.80;77.10;;;;;;4804759;29;20063;-55
2022/10/15 02:55:23;;;;;;;14.35;10.82;;;16.80;77.10;;;;;;4799359;29;20055;-52
2022/10/15 02:57:52;;;;;;;11.90;10.35;;;16.80;77.10;;;;;;4804787;29;20394;-52
2022/10/15 03:00:20;;;;;;;12.82;11.35;;;16.70;77.10;;;;;;4804741;29;20059;-52
2022/10/15 03:02:55;;;;;;;12.00;10.68;;;16.70;77.10;;;;;;4792798;29;20059;-52
2022/10/15 03:05:25;;;;;;;12.25;10.95;;;16.80;77.10;;;;;;4819310;29;20047;-55
2022/10/15 03:07:59;;;;;;;12.35;11.05;;;16.70;77.10;;;;;;4805860;29;20455;-55
2022/10/15 03:10:26;;;;;;;13.75;11.75;;;16.70;77.10;;;;;;4804553;29;20065;-55
2022/10/15 03:12:53;;;;;;;12.88;10.98;;;16.80;77.10;;;;;;4801156;29;20081;-54
2022/10/15 03:15:20;;;;;;;11.35;10.15;;;16.80;76.90;;;;;;4803814;29;20054;-56
2022/10/15 03:17:49;;;;;;;13.25;11.02;;;16.70;76.70;;;;;;4811231;29;20099;-51
2022/10/15 03:20:17;;;;;;;12.40;11.05;;;16.70;76.60;;;;;;4804946;29;20050;-54
2022/10/15 03:22:43;;;;;;;12.23;10.48;;;16.70;76.60;;;;;;4801133;29;20304;-54
2022/10/15 03:25:10;;;;;;;12.23;10.15;;;16.70;76.70;;;;;;4802314;29;20562;-55
2022/10/15 03:27:37;;;;;;;13.30;11.52;;;16.70;76.70;;;;;;4804214;29;20055;-54
2022/10/15 03:30:12;;;;;;;15.18;12.32;;;16.60;76.70;;;;;;4823664;24;20050;-48
2022/10/15 03:32:43;;;;;;;13.20;11.50;;;16.60;76.70;;;;;;4799932;29;20059;-50
2022/10/15 03:35:12;;;;;;;12.68;11.45;;;16.60;76.70;;;;;;4803303;29;20051;-52
2022/10/15 03:37:40;;;;;;;12.25;10.95;;;16.60;76.70;;;;;;4803944;29;20512;-47
2022/10/15 03:40:11;;;;;;;12.23;10.95;;;16.60;76.70;;;;;;4800747;29;20047;-51
2022/10/15 03:42:43;;;;;;;11.85;10.00;;;16.50;76.60;;;;;;4802955;29;20483;-50
2022/10/15 03:45:10;;;;;;;13.77;11.85;;;16.50;76.50;;;;;;4803351;29;20428;-49
2022/10/15 03:47:43;;;;;;;12.95;11.57;;;16.50;76.50;;;;;;4803998;29;20043;-49
2022/10/15 03:50:10;;;;;;;12.43;10.52;;;16.50;76.70;;;;;;4799789;29;20057;-47
2022/10/15 03:52:39;;;;;;;14.32;11.30;;;16.40;76.70;;;;;;4803582;29;20142;-51
2022/10/15 03:55:08;;;;;;;14.43;11.20;;;16.40;77.00;;;;;;4803664;29;20047;-50
2022/10/15 03:57:41;;;;;;;12.45;11.02;;;16.40;77.20;;;;;;4800654;29;20062;-48
2022/10/15 04:00:11;;;;;;;13.30;11.68;;;16.40;77.40;;;;;;4802808;29;20057;-50
2022/10/15 04:02:40;;;;;;;12.02;9.95;;;16.40;77.50;;;;;;4799022;29;20055;-49
2022/10/15 04:05:18;;;;;;;13.10;11.50;;;16.40;77.50;;;;;;4803553;29;20078;-53
2022/10/15 04:07:50;;;;;;;11.48;10.27;;;16.40;77.60;;;;;;4802817;29;20512;-51
2022/10/15 04:10:20;;;;;;;12.93;11.48;;;16.40;77.60;;;;;;4799298;29;20053;-50
2022/10/15 04:12:47;;;;;;;13.07;11.43;;;16.50;77.70;;;;;;4804518;29;20038;-50
2022/10/15 04:15:20;;;;;;;13.38;11.38;;;16.50;77.70;;;;;;4802919;29;20584;-48
2022/10/15 04:17:58;;;;;;;11.70;10.48;;;16.50;77.70;;;;;;4804571;29;20051;-48
2022/10/15 04:20:30;;;;;;;13.32;11.23;;;16.50;77.60;;;;;;4803254;29;20054;-49
2022/10/15 04:23:14;;;;;;;13.88;11.02;;;16.50;77.50;;;;;;4803170;29;20433;-50
2022/10/15 04:25:51;;;;;;;11.82;10.50;;;16.50;77.40;;;;;;4797025;29;20115;-51
2022/10/15 04:28:18;;;;;;;12.93;11.27;;;16.50;77.20;;;;;;4817949;29;20076;-49
2022/10/15 04:30:46;;;;;;;12.90;10.90;;;16.50;77.20;;;;;;4803112;29;20054;-48
2022/10/15 04:33:17;;;;;;;12.73;11.25;;;16.50;77.10;;;;;;4803011;29;20055;-51
2022/10/15 04:35:48;;;;;;;12.80;10.10;;;16.40;76.90;;;;;;4794299;29;20070;-50
2022/10/15 04:38:30;;;;;;;12.93;9.88;;;16.40;76.80;;;;;;4816121;29;20047;-50
2022/10/15 04:41:05;;;;;;;11.05;9.57;;;16.40;76.50;;;;;;4802988;29;20077;-48
2022/10/15 04:43:46;;;;;;;10.88;9.75;;;16.30;76.30;;;;;;4801931;29;20100;-53
2022/10/15 04:46:13;;;;;;;13.57;10.73;;;16.20;76.40;;;;;;4798064;29;20448;-47
2022/10/15 04:48:40;;;;;;;12.70;10.52;;;16.20;76.60;;;;;;4802834;29;20051;-50
2022/10/15 04:51:14;;;;;;;11.63;9.87;;;16.10;76.60;;;;;;4802802;29;20459;-50
2022/10/15 04:54:01;;;;;;;11.13;9.68;;;16.10;76.50;;;;;;4802437;29;20043;-51
2022/10/15 04:56:29;;;;;;;10.85;9.55;;;16.00;76.40;;;;;;4800000;29;20078;-50
2022/10/15 04:58:59;;;;;;;12.90;10.43;;;16.00;76.40;;;;;;4802150;29;20150;-50
2022/10/15 05:01:30;;;;;;;10.65;9.10;;;15.90;76.30;;;;;;4802994;29;20082;-49
2022/10/15 05:04:02;;;;;;;10.68;9.57;;;15.90;76.30;;;;;;4802278;29;20050;-49
2022/10/15 05:06:34;;;;;;;11.98;9.68;;;15.80;76.30;;;;;;4798188;29;20058;-53
2022/10/15 05:09:15;;;;;;;12.18;9.75;;;15.80;76.50;;;;;;4802515;29;20078;-49
2022/10/15 05:11:47;;;;;;;12.52;10.65;;;15.70;77.20;;;;;;4801985;29;20050;-52
2022/10/15 05:14:14;;;;;;;13.18;10.10;;;15.70;76.80;;;;;;4796119;29;20047;-50
2022/10/15 05:16:48;;;;;;;12.48;10.23;;;15.70;77.10;;;;;;4802209;29;20078;-51
2022/10/15 05:19:16;;;;;;;14.25;10.35;;;15.60;77.30;;;;;;4802111;29;20071;-48
2022/10/15 05:21:46;;;;;;;14.00;11.05;;;15.60;77.50;;;;;;4800414;29;20055;-47
2022/10/15 05:24:25;;;;;;;13.15;11.85;;;15.60;77.80;;;;;;4802240;29;20130;-51
2022/10/15 05:26:59;;;;;;;15.55;11.65;;;15.60;78.10;;;;;;4802215;29;20127;-51
2022/10/15 05:29:33;;;;;;;14.52;11.48;;;15.50;78.30;;;;;;4802317;29;20129;-49
2022/10/15 05:32:00;;;;;;;14.43;10.80;;;15.50;78.40;;;;;;4796435;29;20104;-48
2022/10/15 05:34:29;;;;;;;16.23;10.82;;;15.50;78.60;;;;;;4801960;29;20187;-52
2022/10/15 05:37:00;;;;;;;18.83;11.35;;;15.60;79.10;;;;;;4802123;29;20066;-48
2022/10/15 05:39:27;;;;;;;15.77;12.25;;;15.60;79.40;;;;;;4802235;29;20074;-52
2022/10/15 05:41:54;;;;;;;16.85;12.48;;;15.60;79.80;;;;;;4800377;29;20547;-51
2022/10/15 05:44:34;;;;;;;14.80;11.88;;;15.60;80.10;;;;;;4801886;29;20051;-51
2022/10/15 05:47:01;;;;;;;18.95;13.00;;;15.70;80.30;;;;;;4802302;29;20146;-48
2022/10/15 05:49:28;;;;;;;18.00;13.38;;;15.80;80.50;;;;;;4802827;29;20512;-47
2022/10/15 05:52:02;;;;;;;20.25;14.48;;;15.80;80.50;;;;;;4796803;29;20044;-48
2022/10/15 05:54:48;;;;;;;20.98;14.40;;;15.80;80.40;;;;;;4803681;29;20089;-48
2022/10/15 05:57:14;;;;;;;22.27;16.25;;;15.90;80.30;;;;;;4806875;29;20046;-50
2022/10/15 05:59:41;;;;;;;26.58;17.33;;;15.90;80.20;;;;;;4820308;29;20046;-55
2022/10/15 06:02:14;;;;;;;24.50;17.13;;;16.00;80.20;;;;;;4802863;29;20057;-54
2022/10/15 06:04:42;;;;;;;24.08;17.30;;;16.00;80.30;;;;;;4796915;29;20074;-55
2022/10/15 06:07:09;;;;;;;26.08;17.92;;;16.10;80.20;;;;;;4801952;29;20051;-55
2022/10/15 06:09:36;;;;;;;28.02;19.15;;;16.10;80.30;;;;;;4801891;29;20059;-53
2022/10/15 06:12:02;;;;;;;30.55;20.15;;;16.10;80.20;;;;;;4806441;29;20090;-55
2022/10/15 06:14:29;;;;;;;27.55;20.38;;;16.20;80.20;;;;;;4802983;29;20652;-53
2022/10/15 06:16:56;;;;;;;33.70;21.50;;;16.20;80.10;;;;;;4804184;29;20053;-55
2022/10/15 06:19:23;;;;;;;30.88;21.02;;;16.30;80.10;;;;;;4804843;29;20046;-55
2022/10/15 06:21:49;;;;;;;28.95;20.67;;;16.30;80.10;;;;;;4805061;29;20074;-54
2022/10/15 06:24:17;;;;;;;29.40;21.15;;;16.30;80.00;;;;;;4804036;29;20055;-55
2022/10/15 06:26:44;;;;;;;30.10;21.05;;;16.30;79.90;;;;;;4802167;29;20067;-55
2022/10/15 06:29:13;;;;;;;28.25;20.13;;;16.40;79.90;;;;;;4801344;29;20050;-55
2022/10/15 06:31:40;;;;;;;30.70;20.30;;;16.40;79.80;;;;;;4802195;29;20424;-54
2022/10/15 06:34:06;;;;;;;28.38;21.02;;;16.50;79.80;;;;;;4797640;29;20413;-53
2022/10/15 06:36:33;;;;;;;27.85;20.42;;;16.50;79.60;;;;;;4799171;29;20054;-52
2022/10/15 06:39:00;;;;;;;31.92;21.05;;;16.50;79.70;;;;;;4801930;29;20047;-53
2022/10/15 06:41:28;;;;;;;28.95;21.88;;;16.60;80.20;;;;;;4792224;29;20051;-55
2022/10/15 06:43:55;;;;;;;27.65;20.58;;;16.60;79.50;;;;;;4799780;29;20047;-55
2022/10/15 06:46:22;;;;;;;28.33;20.52;;;16.60;79.40;;;;;;4805196;29;20497;-55
2022/10/15 06:48:50;;;;;;;27.73;20.67;;;16.70;79.40;;;;;;4798749;29;20057;-56
2022/10/15 06:51:17;;;;;;;27.92;19.50;;;16.70;79.40;;;;;;4804329;29;20051;-55
2022/10/15 06:53:48;;;;;;;29.05;19.60;;;16.70;79.20;;;;;;4809024;29;20051;-55
2022/10/15 06:56:14;;;;;;;25.77;18.60;;;16.70;79.10;;;;;;4799712;29;20572;-52
2022/10/15 06:58:45;;;;;;;26.75;20.05;;;16.70;79.10;;;;;;4802119;29;20512;-55
2022/10/15 07:01:12;;;;;;;25.95;17.88;;;16.80;79.10;;;;;;4806576;29;20199;-55
2022/10/15 07:03:40;;;;;;;23.40;16.58;;;16.80;79.00;;;;;;4800003;29;20051;-54
2022/10/15 07:06:08;;;;;;;28.33;17.90;;;16.80;78.90;;;;;;4803791;29;20125;-54
2022/10/15 07:08:35;;;;;;;21.80;15.63;;;16.80;79.00;;;;;;4801023;29;20053;-55
2022/10/15 07:11:04;;;;;;;21.45;15.63;;;16.90;79.10;;;;;;4805550;29;20763;-54
2022/10/15 07:13:30;;;;;;;17.60;14.65;;;16.90;79.10;;;;;;4805074;29;20108;-55
2022/10/15 07:16:07;;;;;;;20.30;14.88;;;16.90;79.70;;;;;;4801275;29;20524;-52
2022/10/15 07:18:35;;;;;;;19.38;13.55;;;16.90;79.20;;;;;;4804476;29;20062;-55
2022/10/15 07:21:03;;;;;;;16.42;12.48;;;17.00;79.10;;;;;;4804986;29;20046;-55
2022/10/15 07:23:30;;;;;;;18.83;12.55;;;17.00;79.00;;;;;;4803407;29;20055;-54
2022/10/15 07:25:58;;;;;;;15.35;10.55;;;17.00;78.80;;;;;;4802805;29;20047;-55
2022/10/15 07:28:25;;;;;;;13.80;10.52;;;17.10;78.70;;;;;;4804031;29;20535;-54
2022/10/15 07:30:52;;;;;;;17.65;12.60;;;17.10;78.60;;;;;;4806650;29;20085;-55
2022/10/15 07:33:19;;;;;;;12.85;9.98;;;17.10;78.50;;;;;;4810202;29;20047;-55
2022/10/15 07:35:58;;;;;;;11.38;9.43;;;17.20;78.50;;;;;;4804654;29;20471;-53
2022/10/15 07:38:24;;;;;;;11.07;8.75;;;17.20;78.20;;;;;;4805782;29;20133;-53
2022/10/15 07:40:51;;;;;;;14.93;9.90;;;17.20;78.00;;;;;;4805367;29;20500;-53
2022/10/15 07:43:18;;;;;;;13.38;9.27;;;17.20;78.00;;;;;;4800177;29;20049;-52
2022/10/15 07:45:51;;;;;;;10.57;8.52;;;17.30;78.00;;;;;;4802804;29;20046;-54
2022/10/15 07:48:17;;;;;;;12.40;8.82;;;17.30;78.50;;;;;;4803030;29;20039;-51
2022/10/15 07:50:44;;;;;;;12.20;8.45;;;17.30;77.70;;;;;;4805559;29;20058;-54
2022/10/15 07:53:11;;;;;;;10.63;8.02;;;17.30;77.60;;;;;;4803849;29;20466;-55
2022/10/15 07:55:38;;;;;;;11.23;8.15;;;17.30;77.50;;;;;;4799035;29;20043;-55
2022/10/15 07:58:07;;;;;;;9.85;7.28;;;17.30;77.40;;;;;;4805299;29;20043;-55
2022/10/15 08:00:33;;;;;;;9.68;8.27;;;17.30;77.50;;;;;;4803985;29;20054;-55
2022/10/15 08:03:00;;;;;;;12.73;8.43;;;17.30;77.50;;;;;;4801490;29;20065;-54
2022/10/15 08:05:27;;;;;;;9.07;7.28;;;17.30;77.60;;;;;;4799719;29;20078;-55
2022/10/15 08:07:53;;;;;;;9.45;6.80;;;17.30;77.70;;;;;;4803861;29;20054;-55
2022/10/15 08:10:20;;;;;;;8.95;7.30;;;17.30;77.80;;;;;;4804593;29;20062;-55
2022/10/15 08:12:47;;;;;;;9.05;6.63;;;17.30;78.30;;;;;;4801521;29;20470;-55
2022/10/15 08:15:14;;;;;;;8.77;6.28;;;17.40;78.40;;;;;;4804730;29;20505;-54
2022/10/15 08:17:40;;;;;;;9.30;6.47;;;17.40;78.70;;;;;;4804728;29;20062;-54
2022/10/15 08:20:08;;;;;;;10.95;7.13;;;17.50;79.00;;;;;;4821409;29;20054;-54
2022/10/15 08:22:35;;;;;;;9.35;6.97;;;17.60;79.00;;;;;;4805824;29;20050;-54
2022/10/15 08:25:04;;;;;;;7.75;6.30;;;17.70;78.80;;;;;;4801603;29;20061;-52
2022/10/15 08:27:31;;;;;;;8.70;6.22;;;17.80;78.70;;;;;;4804901;29;20051;-55
2022/10/15 08:30:02;;;;;;;8.50;6.68;;;17.80;78.30;;;;;;4804902;29;20046;-55
2022/10/15 08:32:29;;;;;;;10.15;7.88;;;17.90;78.40;;;;;;4804404;29;20564;-54
2022/10/15 08:34:55;;;;;;;7.90;6.47;;;18.00;78.40;;;;;;4801069;29;20047;-55
2022/10/15 08:37:22;;;;;;;6.32;5.32;;;18.10;78.30;;;;;;4801911;29;20053;-54
2022/10/15 08:39:48;;;;;;;8.10;5.93;;;18.20;77.80;;;;;;4802593;29;20051;-54
2022/10/15 08:42:25;;;;;;;6.57;5.07;;;18.20;77.40;;;;;;4803889;29;20520;-51
2022/10/15 08:45:03;;;;;;;5.40;4.50;;;18.30;77.10;;;;;;4803799;29;20078;-55
2022/10/15 08:47:39;;;;;;;5.40;4.15;;;18.30;76.80;;;;;;4807507;29;20054;-51
2022/10/15 08:50:25;;;;;;;4.10;3.50;;;18.40;76.60;;;;;;4799261;29;20127;-54
2022/10/15 08:52:54;;;;;;;4.53;3.33;;;18.40;76.30;;;;;;4802375;29;20043;-51
2022/10/15 08:55:27;;;;;;;4.57;3.38;;;18.40;76.80;;;;;;4800779;29;20535;-55
2022/10/15 08:58:12;;;;;;;2.80;2.58;;;18.50;77.40;;;;;;4802433;29;20147;-53
2022/10/15 09:00:50;;;;;;;3.15;2.85;;;18.60;77.60;;;;;;4801586;29;20111;-50
2022/10/15 09:03:47;;;;;;;3.20;2.90;;;18.70;77.60;;;;;;4803522;29;20107;-54
2022/10/15 09:06:33;;;;;;;3.63;2.75;;;18.80;77.30;;;;;;4804380;29;20053;-51
2022/10/15 09:09:29;;;;;;;3.45;2.33;;;18.90;77.20;;;;;;4801477;29;20051;-53
2022/10/15 09:12:02;;;;;;;2.90;2.50;;;19.00;76.70;;;;;;4801265;29;20055;-51
2022/10/15 09:14:34;;;;;;;4.32;2.70;;;19.10;76.50;;;;;;4804270;29;20141;-53
2022/10/15 09:17:09;;;;;;;2.25;1.83;;;19.20;76.40;;;;;;4797973;29;20078;-54
2022/10/15 09:19:36;;;;;;;2.90;2.17;;;19.30;76.00;;;;;;4803853;29;20057;-52
2022/10/15 09:22:13;;;;;;;3.83;2.58;;;19.40;75.80;;;;;;4804237;29;20119;-54
2022/10/15 09:24:42;;;;;;;2.08;1.88;;;19.50;75.50;;;;;;4800699;29;20047;-54
2022/10/15 09:27:30;;;;;;;1.75;1.52;;;19.50;75.00;;;;;;4804209;29;20046;-51
2022/10/15 09:30:32;;;;;;;1.67;1.55;;;19.60;74.00;;;;;;4804089;29;20055;-51
2022/10/15 09:33:23;;;;;;;1.95;1.42;;;19.70;74.40;;;;;;4802048;29;20047;-52
2022/10/15 09:36:09;;;;;;;1.80;1.70;;;19.80;74.00;;;;;;4800158;29;20047;-57
2022/10/15 09:39:14;;;;;;;1.38;1.27;;;19.80;74.00;;;;;;4800657;29;20055;-50
2022/10/15 09:42:06;;;;;;;1.42;1.33;;;19.90;73.70;;;;;;4807738;29;20142;-52
2022/10/15 09:44:44;;;;;;;1.98;1.30;;;19.90;73.10;;;;;;4803497;29;20058;-52
2022/10/15 09:47:26;;;;;;;1.98;1.48;;;20.00;73.00;;;;;;4825560;24;20074;-50
2022/10/15 09:49:59;;;;;;;1.50;1.40;;;20.00;73.20;;;;;;4804793;29;20039;-51
2022/10/15 09:52:54;;;;;;;1.45;1.20;;;20.00;73.20;;;;;;4807795;29;20589;-54
2022/10/15 09:55:46;;;;;;;1.10;1.10;;;20.00;73.10;;;;;;4802842;29;20092;-55
2022/10/15 09:58:29;;;;;;;1.30;1.20;;;19.90;73.10;;;;;;4806274;29;20432;-51
2022/10/15 10:01:05;;;;;;;9.00;1.58;;;19.90;73.30;;;;;;4807623;29;20039;-55
2022/10/15 10:03:40;;;;;;;1.67;1.02;;;19.90;73.30;;;;;;4807475;29;20051;-54
2022/10/15 10:06:14;;;;;;;1.38;0.90;;;20.00;73.50;;;;;;4802959;29;20509;-55
2022/10/15 10:08:58;;;;;;;1.67;0.90;;;19.80;73.70;;;;;;4802715;29;20043;-55
2022/10/15 10:11:51;;;;;;;1.80;0.88;;;19.80;73.50;;;;;;4801541;29;20107;-53
2022/10/15 10:14:28;;;;;;;1.90;0.75;;;19.80;73.70;;;;;;4796906;29;20094;-54
2022/10/15 10:17:22;;;;;;;1.52;1.17;;;19.70;73.90;;;;;;4800248;29;20072;-53
2022/10/15 10:20:27;;;;;;;2.10;1.00;;;19.70;74.20;;;;;;4798223;29;20050;-53
2022/10/15 10:22:58;;;;;;;1.98;1.00;;;19.60;74.40;;;;;;4793157;29;20061;-50
2022/10/15 10:25:30;;;;;;;1.08;1.02;;;19.60;74.60;;;;;;4794105;29;20051;-54
2022/10/15 10:28:14;;;;;;;1.98;1.85;;;19.60;75.20;;;;;;4807276;29;20126;-54
2022/10/15 10:31:02;;;;;;;1.35;1.00;;;19.60;75.40;;;;;;4811121;29;20101;-51
2022/10/15 10:33:43;;;;;;;1.20;1.10;;;19.60;75.60;;;;;;4801334;29;20043;-54
2022/10/15 10:36:32;;;;;;;1.05;1.00;;;19.70;76.40;;;;;;4806322;29;20114;-55
2022/10/15 10:39:19;;;;;;;1.17;1.00;;;19.70;75.70;;;;;;4806598;29;20067;-52
2022/10/15 10:42:04;;;;;;;1.10;1.00;;;19.70;75.70;;;;;;4800347;29;20050;-51
2022/10/15 10:44:34;;;;;;;1.30;1.20;;;19.80;75.50;;;;;;4805981;29;20047;-51
2022/10/15 10:47:14;;;;;;;2.47;1.30;;;19.90;75.60;;;;;;4806341;29;20073;-52
2022/10/15 10:49:45;;;;;;;1.40;1.30;;;19.90;75.40;;;;;;4803228;29;20050;-53
2022/10/15 10:52:41;;;;;;;2.03;1.13;;;19.90;75.20;;;;;;4802655;29;20042;-52
2022/10/15 10:55:20;;;;;;;1.63;1.02;;;20.00;75.40;;;;;;4805862;29;20064;-54
2022/10/15 10:57:49;;;;;;;1.60;1.40;;;20.00;76.10;;;;;;4806505;29;20515;-54
2022/10/15 11:00:24;;;;;;;3.92;1.20;;;20.10;76.10;;;;;;4801466;29;20039;-52
2022/10/15 11:02:51;;;;;;;1.58;1.10;;;20.10;75.80;;;;;;4802959;29;20548;-54
2022/10/15 11:05:25;;;;;;;1.23;1.13;;;20.20;75.50;;;;;;4805582;29;20122;-54
2022/10/15 11:08:09;;;;;;;1.20;1.02;;;20.20;75.40;;;;;;4802740;29;20046;-52
2022/10/15 11:10:50;;;;;;;1.65;1.02;;;20.30;75.40;;;;;;4802157;29;20042;-52
2022/10/15 11:13:37;;;;;;;1.20;0.98;;;20.30;75.50;;;;;;4798601;29;20746;-52
2022/10/15 11:16:35;;;;;;;1.70;1.20;;;20.30;75.40;;;;;;4802721;29;20051;-54
2022/10/15 11:19:30;;;;;;;1.20;0.80;;;20.40;75.70;;;;;;4790514;29;20039;-51
2022/10/15 11:22:44;;;;;;;0.50;0.50;;;20.40;75.60;;;;;;4795979;29;20048;-51
2022/10/15 11:25:20;;;;;;;0.80;0.60;;;20.40;75.50;;;;;;4796919;29;20164;-51
2022/10/15 11:28:17;;;;;;;0.40;0.40;;;20.50;75.80;;;;;;4806362;29;20127;-52
2022/10/15 11:30:53;;;;;;;0.70;0.30;;;20.50;75.80;;;;;;4803042;29;20054;-54
2022/10/15 11:33:45;;;;;;;0.65;0.20;;;20.50;75.60;;;;;;4804413;29;20121;-53
2022/10/15 11:36:40;;;;;;;0.57;0.57;;;20.60;75.70;;;;;;4804527;29;20047;-54
2022/10/15 11:39:24;;;;;;;0.40;0.40;;;20.70;75.70;;;;;;4801846;29;20125;-55
2022/10/15 11:42:00;;;;;;;0.30;0.30;;;20.70;75.90;;;;;;4801986;29;20043;-51
2022/10/15 11:44:46;;;;;;;0.73;0.40;;;20.80;76.20;;;;;;4806096;29;20151;-52
2022/10/15 11:47:27;;;;;;;0.30;0.30;;;20.90;76.40;;;;;;4800415;29;20055;-53
2022/10/15 11:50:03;;;;;;;0.20;0.20;;;21.00;76.30;;;;;;4801975;29;20497;-54
2022/10/15 11:52:42;;;;;;;0.93;0.40;;;21.20;76.00;;;;;;4802605;29;20456;-51
2022/10/15 11:55:19;;;;;;;0.68;0.30;;;21.30;75.10;;;;;;4803768;29;20085;-54
2022/10/15 11:57:50;;;;;;;0.30;0.30;;;21.40;74.90;;;;;;4801272;29;20046;-55
2022/10/15 12:00:20;;;;;;;0.38;0.38;;;21.50;74.30;;;;;;4805211;29;20063;-52
2022/10/15 12:02:49;;;;;;;1.20;0.40;;;21.50;74.10;;;;;;4800755;29;20062;-52
2022/10/15 12:05:27;;;;;;;0.25;0.20;;;21.60;73.50;;;;;;4805123;29;20057;-54
2022/10/15 12:07:55;;;;;;;0.30;0.30;;;21.60;73.00;;;;;;4800125;29;20083;-51
2022/10/15 12:10:55;;;;;;;1.05;0.50;;;21.70;73.10;;;;;;4805362;29;20466;-54
2022/10/15 12:13:34;;;;;;;1.02;0.88;;;21.70;72.60;;;;;;4805984;29;20049;-51
2022/10/15 12:16:10;;;;;;;2.67;0.80;;;21.80;73.00;;;;;;4801632;29;20035;-53
2022/10/15 12:19:01;;;;;;;0.50;0.50;;;21.80;71.90;;;;;;4804106;29;20051;-51
2022/10/15 12:21:42;;;;;;;0.30;0.30;;;21.90;71.60;;;;;;4804264;29;20050;-52
2022/10/15 12:24:38;;;;;;;0.30;0.22;;;21.90;71.40;;;;;;4797030;29;20414;-53
2022/10/15 12:27:21;;;;;;;0.55;0.40;;;21.90;70.80;;;;;;4799049;29;20109;-55
2022/10/15 12:30:06;;;;;;;0.20;0.20;;;21.90;70.70;;;;;;4804546;29;20131;-53
2022/10/15 12:32:37;;;;;;;0.20;0.20;;;21.90;70.90;;;;;;4801434;29;20122;-53
2022/10/15 12:35:13;;;;;;;1.08;0.65;;;21.90;71.20;;;;;;4799926;29;20086;-54
2022/10/15 12:37:42;;;;;;;1.88;0.80;;;21.90;71.40;;;;;;4803097;29;20134;-51
2022/10/15 12:40:21;;;;;;;3.97;1.33;;;21.90;71.40;;;;;;4803900;29;20754;-52
2022/10/15 12:43:11;;;;;;;1.33;1.17;;;21.90;71.50;;;;;;4800814;29;20162;-51
2022/10/15 12:45:47;;;;;;;1.27;1.05;;;22.00;71.60;;;;;;4802028;29;20050;-52
2022/10/15 12:48:14;;;;;;;0.60;0.55;;;22.00;71.90;;;;;;4802815;29;20089;-53
2022/10/15 12:50:41;;;;;;;0.45;0.40;;;22.10;71.90;;;;;;4803858;29;20450;-51
2022/10/15 12:53:28;;;;;;;1.25;0.40;;;22.20;71.50;;;;;;4799543;29;20046;-53
2022/10/15 12:56:20;;;;;;;0.50;0.40;;;22.30;70.70;;;;;;4801151;29;20122;-54
2022/10/15 12:58:50;;;;;;;0.43;0.30;;;22.40;70.60;;;;;;4800392;29;20075;-55
2022/10/15 13:01:20;;;;;;;0.30;0.30;;;22.50;70.70;;;;;;4802668;29;20047;-53
2022/10/15 13:03:50;;;;;;;0.22;0.20;;;22.50;70.40;;;;;;4801655;29;20062;-51
2022/10/15 13:06:19;;;;;;;0.82;0.40;;;22.50;69.90;;;;;;4804239;29;20130;-51
2022/10/15 13:09:10;;;;;;;1.40;0.30;;;22.60;70.40;;;;;;4804417;29;20099;-53
2022/10/15 13:11:58;;;;;;;0.47;0.45;;;22.60;70.20;;;;;;4802499;29;20039;-55
2022/10/15 13:14:34;;;;;;;0.55;0.55;;;22.70;70.20;;;;;;4803546;29;20075;-51
2022/10/15 13:17:17;;;;;;;0.30;0.30;;;22.80;69.90;;;;;;4809933;29;20043;-55